Youngtown, Arizona
Current Conditions -  °F | °C
As of 4:47 PM on Saturday 25 Oct 2014 (Local Time) from KGEU Reporting Station
Few Clouds Few Clouds  
Wind Chill: 93°   Ceiling: Unl
Heat Index: 93°   Visibility: 20mi
Dew Point: 48°   Wind: 0mph
Humidity: 21%   Direction: NA
Pressure: 29.92"   Gusts: NA
Location:  33.59°N, 112.3°W
Report Text: KGEU 252347Z 00000KT 20SM FEW120 FEW200 34/09 A2992
Loading
Personal Weather Stations






























Interactive Weather Map
Tropical Storm Tracking
New forecast layout! Learn more

10-Day Weather Forecast

Advertisements
Track Severe Weather on mobile